Terminal Aerodrome Forecast
Issued by NWS

Home | Current Version | Previous Version | Text Only | Print | Product List | Glossary On
Versions: 1 2 3 4 5 6 7 8 9 10 11 12 13 14 15 16 17 18
368
FTUS41 KGYX 041120
TAFPSM
TAF
KPSM 041120Z 0412/0512 31007KT P6SM SCT045
     FM041500 31011G18KT P6SM SKC
     FM042300 VRB03KT P6SM SKC
     FM050900 VRB03KT P6SM BKN250=

USA.gov is the U.S. government's official web portal to all federal, state and local government web resources and services.